Kaharoa — ZM7552 — position and weather

sailwx.info

Track history (hours):
 
Tides and Currents Weather Stations Pressure Air Temp Water Temp Dewpoint Dewpoint Depression Visibility Wind Speed Wind Dir Waves Ship Positions

Oceanographic research ship Kaharoa (New Zealand)

Detailed information on ship capabilities available from University of Delaware's Ocean Information Center.

Last reported at 2020-Aug-13 04:00 UTC. Time now 2020-Aug-13 11:48 UTC.
Position S 29°36' E 109°06'.

Length 28 m; draft 4 m.

Type: Fishing. MMSI: 512063000.

Wind from 210 at 9 knots

Barometer 1021.4 mb
Air temperature 16.8 ° C
Visibility: greater than 10.8 NM
Dewpoint 11.1 ° C

Date/timePositionNaut miles runAvg speedWind from/ knotsBaromVisibWave heightAir tempDewpointWater temp
2020-Aug-13 04:00S 29°36' E 109°06'160 8.9 210 / 91021.410.8 16.811.1
2020-Aug-12 10:00S 30°54' E 111°48'48 8.0 200 / 221019.2 2.2 15.4 9.1
2020-Aug-12 04:00S 31°06' E 112°42'144 9.4 230 / 161018.4 5.4 17.511.6
2020-Aug-11 12:39S 31°53' E 115°22'11 9.2
2020-Aug-11 11:30S 31°56' E 115°34'11 7.6
2020-Aug-11 10:00S 32°03' E 115°45'0 0.0
2020-Aug-11 09:30S 32°03' E 115°45'0 0.0
2020-Aug-11 07:00S 32°03' E 115°45'0 0.0
2020-Aug-11 06:00S 32°03' E 115°45'0 0.0
2020-Aug-11 05:00S 32°03' E 115°45'0 0.0
2020-Aug-11 01:00S 32°03' E 115°45'0 0.0
2020-Aug-11 00:00S 32°03' E 115°45'0 0.0
2020-Aug-10 21:30S 32°03' E 115°45'0 0.0
2020-Aug-10 18:00S 32°03' E 115°45'0 0.0
2020-Aug-10 12:30S 32°03' E 115°45'0 0.0
2020-Aug-10 09:00S 32°03' E 115°45'0 0.0
2020-Aug-10 08:30S 32°03' E 115°45'0 0.0
2020-Aug-10 00:30S 32°03' E 115°45'0 0.0
2020-Aug-09 23:30S 32°03' E 115°45'0 0.0
2020-Aug-09 20:00S 32°03' E 115°45'0 0.0
2020-Aug-09 18:30S 32°03' E 115°45'0 0.0
2020-Aug-09 16:30S 32°03' E 115°45'0 0.0
2020-Aug-09 14:59S 32°03' E 115°45'0 0.0
2020-Aug-09 12:29S 32°03' E 115°45'0 0.0
2020-Aug-09 10:59S 32°03' E 115°45'0 0.0
2020-Aug-09 09:29S 32°03' E 115°45'0 0.0
2020-Aug-09 07:29S 32°03' E 115°45'0 0.0
2020-Aug-09 06:59S 32°03' E 115°45'0 0.0
2020-Aug-09 05:29S 32°03' E 115°45'0 0.0
2020-Aug-09 04:29S 32°03' E 115°45'3 0.7
2020-Aug-08 23:31S 32°01' E 115°41'5 5.3
2020-Aug-08 22:30S 31°57' E 115°37'5 4.9
2020-Aug-08 21:30S 31°54' E 115°33'5 1.1
2020-Aug-08 17:31S 31°56' E 115°28'2 0.7
2020-Aug-08 14:30S 31°58' E 115°26'2 1.1
2020-Aug-08 12:32S 31°59' E 115°24'4 4.3
2020-Aug-08 11:30S 31°56' E 115°28'3 4.7
2020-Aug-08 10:50S 31°59' E 115°25'44 6.4
2020-Aug-08 04:00S 32°12' E 114°36'65 5.4 020 / 361011.6 5.4 17.012.8
2020-Aug-07 16:00S 32°36' E 113°24'54 4.5 030 / 301016.6 5.4 16.211.4
2020-Aug-07 04:00S 33°06' E 112°30'180 7.5 050 / 241021.6 5.4 16.112.4
2020-Aug-06 04:00S 36°06' E 112°30'97 8.1 110 / 121029.810.8 13.9 9.4
2020-Aug-05 16:00S 37°42' E 112°48'63 9.0 130 / 91030.9 5.4 10.0 6.9
2020-Aug-05 09:00S 38°18' E 113°54'59 9.9 190 / 31027.7 2.2 10.2 6.7
2020-Aug-05 03:00S 38°54' E 114°54'163 9.6 180 / 111027.6 5.4 11.8 6.8
2020-Aug-04 10:00S 39°00' E 118°24'7010.0 130 / 281023.1 2.2 9.7 7.6
2020-Aug-04 03:00S 39°00' E 119°54'47 9.3 110 / 401023.0 2.2 10.8 7.0
2020-Aug-03 22:00S 39°00' E 120°54'65 9.3 120 / 341022.1 2.2 10.0 6.9
2020-Aug-03 15:00S 39°00' E 122°18'   110 / 361024.5 5.4 10.3 6.2
Track history (hours):
 
Tides and Currents Weather Stations Pressure Air Temp Water Temp Dewpoint Dewpoint Depression Visibility Wind Speed Wind Dir Waves Ship Positions

Oceanographic research ship Kaharoa (New Zealand)

Detailed information on ship capabilities available from University of Delaware's Ocean Information Center.

Last reported at 2020-Aug-13 04:00 UTC. Time now 2020-Aug-13 11:48 UTC.
Position S 29°36' E 109°06'.

Length 28 m; draft 4 m.

Type: Fishing. MMSI: 512063000.

Wind from 210 at 9 knots

Barometer 1021.4 mb
Air temperature 16.8 ° C
Visibility: greater than 10.8 NM
Dewpoint 11.1 ° C

Date/timePositionNaut miles runAvg speedWind from/ knotsBaromVisibWave heightAir tempDewpointWater temp
2020-Aug-13 04:00S 29°36' E 109°06'160 8.9 210 / 91021.410.8 16.811.1
2020-Aug-12 10:00S 30°54' E 111°48'48 8.0 200 / 221019.2 2.2 15.4 9.1
2020-Aug-12 04:00S 31°06' E 112°42'144 9.4 230 / 161018.4 5.4 17.511.6
2020-Aug-11 12:39S 31°53' E 115°22'11 9.2
2020-Aug-11 11:30S 31°56' E 115°34'11 7.6
2020-Aug-11 10:00S 32°03' E 115°45'0 0.0
2020-Aug-11 09:30S 32°03' E 115°45'0 0.0
2020-Aug-11 07:00S 32°03' E 115°45'0 0.0
2020-Aug-11 06:00S 32°03' E 115°45'0 0.0
2020-Aug-11 05:00S 32°03' E 115°45'0 0.0
2020-Aug-11 01:00S 32°03' E 115°45'0 0.0
2020-Aug-11 00:00S 32°03' E 115°45'0 0.0
2020-Aug-10 21:30S 32°03' E 115°45'0 0.0
2020-Aug-10 18:00S 32°03' E 115°45'0 0.0
2020-Aug-10 12:30S 32°03' E 115°45'0 0.0
2020-Aug-10 09:00S 32°03' E 115°45'0 0.0
2020-Aug-10 08:30S 32°03' E 115°45'0 0.0
2020-Aug-10 00:30S 32°03' E 115°45'0 0.0
2020-Aug-09 23:30S 32°03' E 115°45'0 0.0
2020-Aug-09 20:00S 32°03' E 115°45'0 0.0
2020-Aug-09 18:30S 32°03' E 115°45'0 0.0
2020-Aug-09 16:30S 32°03' E 115°45'0 0.0
2020-Aug-09 14:59S 32°03' E 115°45'0 0.0
2020-Aug-09 12:29S 32°03' E 115°45'0 0.0
2020-Aug-09 10:59S 32°03' E 115°45'0 0.0
2020-Aug-09 09:29S 32°03' E 115°45'0 0.0
2020-Aug-09 07:29S 32°03' E 115°45'0 0.0
2020-Aug-09 06:59S 32°03' E 115°45'0 0.0
2020-Aug-09 05:29S 32°03' E 115°45'0 0.0
2020-Aug-09 04:29S 32°03' E 115°45'3 0.7
2020-Aug-08 23:31S 32°01' E 115°41'5 5.3
2020-Aug-08 22:30S 31°57' E 115°37'5 4.9
2020-Aug-08 21:30S 31°54' E 115°33'5 1.1
2020-Aug-08 17:31S 31°56' E 115°28'2 0.7
2020-Aug-08 14:30S 31°58' E 115°26'2 1.1
2020-Aug-08 12:32S 31°59' E 115°24'4 4.3
2020-Aug-08 11:30S 31°56' E 115°28'3 4.7
2020-Aug-08 10:50S 31°59' E 115°25'44 6.4
2020-Aug-08 04:00S 32°12' E 114°36'65 5.4 020 / 361011.6 5.4 17.012.8
2020-Aug-07 16:00S 32°36' E 113°24'54 4.5 030 / 301016.6 5.4 16.211.4
2020-Aug-07 04:00S 33°06' E 112°30'180 7.5 050 / 241021.6 5.4 16.112.4
2020-Aug-06 04:00S 36°06' E 112°30'97 8.1 110 / 121029.810.8 13.9 9.4
2020-Aug-05 16:00S 37°42' E 112°48'63 9.0 130 / 91030.9 5.4 10.0 6.9
2020-Aug-05 09:00S 38°18' E 113°54'59 9.9 190 / 31027.7 2.2 10.2 6.7
2020-Aug-05 03:00S 38°54' E 114°54'163 9.6 180 / 111027.6 5.4 11.8 6.8
2020-Aug-04 10:00S 39°00' E 118°24'7010.0 130 / 281023.1 2.2 9.7 7.6
2020-Aug-04 03:00S 39°00' E 119°54'47 9.3 110 / 401023.0 2.2 10.8 7.0
2020-Aug-03 22:00S 39°00' E 120°54'65 9.3 120 / 341022.1 2.2 10.0 6.9
2020-Aug-03 15:00S 39°00' E 122°18'   110 / 361024.5 5.4 10.3 6.2

Dump ship's entire track history